Time;durP1;ratioP1;P1;durP2;ratioP2;P2;SDS_P1;SDS_P2;PMS_P1;PMS_P2;Temp;Humidity;BMP_temperature;BMP_pressure;BME280_temperature;BME280_humidity;BME280_pressure;Samples;Min_cycle;Max_cycle;Signal;HPM_P1;HPM_P2
2021/09/03 00:00:07;;;;;;;7.95;4.38;;;;;;;16.21;62.78;101035.63;5011249;28;20471;-60
2021/09/03 00:02:32;;;;;;;8.00;5.00;;;;;;;16.18;62.90;101033.66;5016473;28;20018;-60
2021/09/03 00:04:58;;;;;;;6.10;4.15;;;;;;;16.13;63.06;101036.94;5016373;28;20114;-64
2021/09/03 00:07:23;;;;;;;6.97;4.55;;;;;;;16.06;63.04;101035.00;5014534;28;20313;-60
2021/09/03 00:09:48;;;;;;;8.70;4.18;;;;;;;16.00;63.75;101022.53;5016647;28;20025;-64
2021/09/03 00:12:14;;;;;;;8.25;3.95;;;;;;;15.98;63.93;101035.53;5016059;28;20417;-59
2021/09/03 00:14:39;;;;;;;6.93;4.68;;;;;;;15.94;63.85;101031.94;5031300;28;20028;-64
2021/09/03 00:17:04;;;;;;;8.43;4.82;;;;;;;15.94;64.05;101026.28;5016248;28;20025;-63
2021/09/03 00:19:30;;;;;;;7.60;4.60;;;;;;;15.91;64.26;101024.28;5016475;28;20025;-60
2021/09/03 00:21:56;;;;;;;13.73;4.70;;;;;;;15.91;64.26;101027.13;5016169;28;20593;-63
2021/09/03 00:24:22;;;;;;;6.15;4.80;;;;;;;15.90;64.77;101026.31;5015946;28;20026;-64
2021/09/03 00:26:47;;;;;;;6.57;4.85;;;;;;;15.93;65.13;101025.47;5016113;28;20032;-63
2021/09/03 00:29:13;;;;;;;8.63;4.80;;;;;;;15.99;65.09;101020.13;5015423;28;20022;-61
2021/09/03 00:31:38;;;;;;;7.57;5.20;;;;;;;16.02;64.71;101019.28;5016088;28;20029;-60
2021/09/03 00:34:04;;;;;;;6.45;4.38;;;;;;;16.02;64.67;101010.75;5015883;28;20030;-64
2021/09/03 00:36:30;;;;;;;8.57;4.38;;;;;;;16.01;65.01;101006.31;5016060;28;20033;-60
2021/09/03 00:38:55;;;;;;;5.40;4.25;;;;;;;16.04;64.92;101014.78;5015915;28;20034;-60
2021/09/03 00:41:21;;;;;;;8.43;4.40;;;;;;;16.07;64.71;101019.59;5015853;28;20313;-60
2021/09/03 00:43:46;;;;;;;7.00;5.32;;;;;;;16.12;64.93;101017.50;5015519;28;20361;-60
2021/09/03 00:46:11;;;;;;;9.10;5.25;;;;;;;16.10;65.18;101020.78;5015815;28;20029;-65
2021/09/03 00:48:37;;;;;;;7.07;4.05;;;;;;;16.11;65.10;101019.53;5015837;28;20034;-60
2021/09/03 00:51:03;;;;;;;8.70;4.95;;;;;;;16.12;64.33;101023.97;5015764;28;20028;-60
2021/09/03 00:53:29;;;;;;;7.47;4.70;;;;;;;16.15;64.04;101025.97;5015568;28;20026;-65
2021/09/03 00:55:54;;;;;;;9.82;5.05;;;;;;;16.17;64.17;101017.88;5015620;28;20087;-60
2021/09/03 00:58:21;;;;;;;5.72;4.78;;;;;;;16.18;64.03;101013.78;5014414;28;20030;-60
2021/09/03 01:00:49;;;;;;;7.90;5.22;;;;;;;16.23;64.33;101015.34;5015584;28;20029;-60
2021/09/03 01:03:15;;;;;;;5.30;4.35;;;;;;;16.25;64.20;101024.22;5015874;28;20029;-64
2021/09/03 01:05:40;;;;;;;5.05;3.95;;;;;;;16.26;64.29;101018.13;5015690;28;20417;-60
2021/09/03 01:08:06;;;;;;;5.93;4.45;;;;;;;16.26;64.29;101014.50;5015482;28;20021;-60
2021/09/03 01:10:33;;;;;;;6.32;4.65;;;;;;;16.27;64.02;101013.25;5019864;28;20081;-60
2021/09/03 01:12:58;;;;;;;6.28;4.45;;;;;;;16.30;64.21;101009.56;5019357;28;20018;-60
2021/09/03 01:15:24;;;;;;;10.40;5.07;;;;;;;16.31;63.71;101009.13;5018207;28;20028;-60
2021/09/03 01:17:49;;;;;;;6.75;5.13;;;;;;;16.34;63.95;101004.63;5019615;28;20033;-60
2021/09/03 01:20:15;;;;;;;7.45;5.30;;;;;;;16.36;63.94;101011.50;5019450;28;20144;-60
2021/09/03 01:22:40;;;;;;;7.50;4.60;;;;;;;16.40;63.71;101005.75;5019340;28;20313;-60
2021/09/03 01:25:07;;;;;;;7.85;4.97;;;;;;;16.41;63.72;101001.69;5019561;28;20235;-60
2021/09/03 01:27:32;;;;;;;6.03;4.47;;;;;;;16.42;63.98;101002.50;5019074;28;20429;-60
2021/09/03 01:29:58;;;;;;;10.70;5.93;;;;;;;16.44;63.86;101000.06;5019241;28;20177;-59
2021/09/03 01:32:23;;;;;;;7.70;4.55;;;;;;;16.45;64.27;100998.81;5018983;28;20044;-59
2021/09/03 01:34:49;;;;;;;7.18;5.25;;;;;;;16.45;64.25;100999.63;5019326;28;20324;-59
2021/09/03 01:37:14;;;;;;;8.40;5.13;;;;;;;16.46;64.41;101006.91;5019152;28;20030;-59
2021/09/03 01:39:39;;;;;;;8.45;5.35;;;;;;;16.47;64.29;101002.84;5019009;28;20127;-59
2021/09/03 01:42:05;;;;;;;6.35;4.68;;;;;;;16.49;64.11;101000.38;5019028;28;20033;-65
2021/09/03 01:44:31;;;;;;;8.35;5.38;;;;;;;16.53;64.05;100994.63;5019086;28;20033;-59
2021/09/03 01:46:57;;;;;;;8.15;4.97;;;;;;;16.53;64.16;100995.44;5018938;28;20026;-60
2021/09/03 01:49:22;;;;;;;8.70;5.38;;;;;;;16.54;64.30;101002.72;5018935;28;20028;-58
2021/09/03 01:51:48;;;;;;;6.63;5.03;;;;;;;16.55;64.12;100992.97;5019164;28;20109;-60
2021/09/03 01:54:13;;;;;;;6.22;4.40;;;;;;;16.56;64.57;100993.78;5018794;28;20053;-60
2021/09/03 01:56:39;;;;;;;8.18;5.60;;;;;;;16.57;64.45;100989.72;5018719;28;20326;-60
2021/09/03 01:59:05;;;;;;;6.15;4.90;;;;;;;16.59;64.26;100990.06;5018145;28;20385;-60
2021/09/03 02:01:30;;;;;;;7.25;5.65;;;;;;;16.58;64.44;100992.13;5018723;28;20026;-60
2021/09/03 02:03:55;;;;;;;6.57;5.00;;;;;;;16.60;64.63;100994.53;5018527;28;20040;-58
2021/09/03 02:06:21;;;;;;;9.00;4.93;;;;;;;16.61;64.64;100993.28;5018957;28;20088;-60
2021/09/03 02:08:46;;;;;;;6.10;5.13;;;;;;;16.63;64.51;100994.47;5018661;28;20068;-60
2021/09/03 02:11:12;;;;;;;6.45;5.15;;;;;;;16.63;64.47;100988.78;5018105;28;20057;-60
2021/09/03 02:13:38;;;;;;;7.53;5.80;;;;;;;16.64;64.57;100984.72;5018467;28;20033;-60
2021/09/03 02:16:04;;;;;;;9.02;5.30;;;;;;;16.64;64.45;100984.72;5018532;28;20057;-60
2021/09/03 02:18:29;;;;;;;8.73;5.35;;;;;;;16.64;64.40;100990.38;5018352;28;20054;-60
2021/09/03 02:20:54;;;;;;;10.77;5.97;;;;;;;16.64;65.03;100989.59;5016596;28;20033;-60
2021/09/03 02:23:20;;;;;;;6.65;5.10;;;;;;;16.65;64.99;100988.34;5018595;28;20024;-60
2021/09/03 02:25:45;;;;;;;7.20;5.55;;;;;;;16.65;65.06;100986.31;5017878;28;20030;-60
2021/09/03 02:28:12;;;;;;;11.82;5.78;;;;;;;16.66;64.88;100987.16;5018254;28;20032;-60
2021/09/03 02:30:37;;;;;;;9.23;5.80;;;;;;;16.66;64.67;100987.94;5017855;28;20137;-60
2021/09/03 02:33:03;;;;;;;11.00;6.05;;;;;;;16.65;65.22;100982.66;5018304;28;20493;-64
2021/09/03 02:35:29;;;;;;;6.93;5.32;;;;;;;16.65;65.33;100985.50;5017881;28;20028;-64
2021/09/03 02:37:56;;;;;;;8.63;5.38;;;;;;;16.67;65.14;100983.06;5018189;28;20101;-60
2021/09/03 02:40:23;;;;;;;8.38;5.43;;;;;;;16.69;65.02;100975.72;5017923;28;20025;-60
2021/09/03 02:42:49;;;;;;;7.03;5.60;;;;;;;16.69;65.09;100970.06;5017706;28;20053;-60
2021/09/03 02:45:14;;;;;;;9.27;6.03;;;;;;;16.69;64.89;100972.88;5018120;28;20049;-60
2021/09/03 02:47:39;;;;;;;10.07;5.65;;;;;;;16.69;65.27;100969.25;5017720;28;20022;-60
2021/09/03 02:50:05;;;;;;;9.50;5.72;;;;;;;16.68;65.27;100976.97;5017849;28;20022;-60
2021/09/03 02:52:31;;;;;;;7.15;5.50;;;;;;;16.68;65.19;100973.31;5017555;28;20034;-60
2021/09/03 02:54:56;;;;;;;7.82;5.78;;;;;;;16.68;65.75;100970.47;5017594;28;20022;-60
2021/09/03 02:57:21;;;;;;;9.82;5.75;;;;;;;16.68;65.67;100970.47;5017749;28;20083;-60
2021/09/03 02:59:47;;;;;;;8.52;5.90;;;;;;;16.68;65.13;100973.31;5017369;28;20125;-60
2021/09/03 03:02:12;;;;;;;7.32;6.05;;;;;;;16.68;65.31;100970.47;5017495;28;20036;-60
2021/09/03 03:04:37;;;;;;;8.35;6.05;;;;;;;16.71;65.00;100971.66;5016825;28;20295;-60
2021/09/03 03:07:03;;;;;;;9.05;6.00;;;;;;;16.71;65.15;100971.66;5017452;28;20052;-64
2021/09/03 03:09:28;;;;;;;11.68;6.15;;;;;;;16.71;65.49;100971.66;5017540;28;20030;-60
2021/09/03 03:11:53;;;;;;;7.57;5.63;;;;;;;16.71;65.15;100977.34;5017494;28;20064;-59
2021/09/03 03:14:32;;;;;;;13.07;6.93;;;;;;;16.70;65.58;100979.38;5017356;28;20033;-64
2021/09/03 03:16:58;;;;;;;11.90;7.00;;;;;;;16.69;65.51;100974.94;5017259;28;20037;-60
2021/09/03 03:19:24;;;;;;;9.40;6.30;;;;;;;16.69;65.88;100975.72;5017494;28;20034;-60
2021/09/03 03:21:49;;;;;;;8.27;5.95;;;;;;;16.69;66.52;100981.41;5016813;28;20062;-59
2021/09/03 03:24:15;;;;;;;7.68;5.82;;;;;;;16.69;66.66;100989.13;5017259;28;20401;-64
2021/09/03 03:26:41;;;;;;;8.13;6.07;;;;;;;16.68;66.56;100984.69;5016222;28;20033;-65
2021/09/03 03:29:07;;;;;;;12.38;6.75;;;;;;;16.66;66.50;100981.47;5016738;28;20018;-65
2021/09/03 03:31:32;;;;;;;9.80;6.55;;;;;;;16.64;66.56;100981.88;5016859;28;20057;-60
2021/09/03 03:33:58;;;;;;;7.35;5.50;;;;;;;16.64;67.26;100978.22;5016247;28;20032;-60
2021/09/03 03:36:24;;;;;;;8.30;5.60;;;;;;;16.63;67.28;100983.09;5016729;28;20436;-60
2021/09/03 03:38:49;;;;;;;8.70;6.15;;;;;;;16.63;67.00;100983.09;5016842;28;20037;-60
2021/09/03 03:41:14;;;;;;;7.60;5.85;;;;;;;16.63;67.16;100980.25;5016968;28;20018;-60
2021/09/03 03:43:40;;;;;;;8.63;6.38;;;;;;;16.66;66.97;100987.16;5016908;28;20396;-60
2021/09/03 03:46:05;;;;;;;8.52;5.75;;;;;;;16.66;66.88;100985.09;5016677;28;20413;-65
2021/09/03 03:48:30;;;;;;;9.10;6.10;;;;;;;16.66;67.01;100978.63;5017193;28;20030;-60
2021/09/03 03:50:56;;;;;;;11.85;6.82;;;;;;;16.66;66.80;100978.63;5016336;28;20053;-60
2021/09/03 03:53:21;;;;;;;10.65;7.25;;;;;;;16.67;66.82;100981.03;5016605;28;20096;-65
2021/09/03 03:55:47;;;;;;;9.88;6.15;;;;;;;16.69;66.93;100977.75;5016636;28;20032;-60
2021/09/03 03:58:12;;;;;;;7.43;6.32;;;;;;;16.68;66.77;100984.69;5016808;28;20072;-60
2021/09/03 04:00:38;;;;;;;9.88;6.05;;;;;;;16.67;66.82;100983.06;5016528;28;20053;-64
2021/09/03 04:03:03;;;;;;;7.97;6.38;;;;;;;16.64;66.73;100978.22;5012619;28;20383;-59
2021/09/03 04:05:28;;;;;;;8.63;6.45;;;;;;;16.63;66.80;100979.47;5006093;28;20073;-60
2021/09/03 04:07:53;;;;;;;10.75;6.65;;;;;;;16.64;67.07;100978.22;5003364;28;20042;-60
2021/09/03 04:10:22;;;;;;;7.68;6.28;;;;;;;16.63;66.93;100979.47;5005684;28;20021;-63
2021/09/03 04:12:47;;;;;;;9.38;6.97;;;;;;;16.62;66.98;100977.88;5016348;28;20034;-64
2021/09/03 04:15:12;;;;;;;11.00;6.95;;;;;;;16.61;67.26;100979.09;5010144;28;20072;-60
2021/09/03 04:17:38;;;;;;;9.18;6.22;;;;;;;16.57;67.05;100982.00;5014452;28;20030;-60
2021/09/03 04:20:05;;;;;;;8.20;6.95;;;;;;;16.58;66.86;100977.91;5008115;28;20043;-60
2021/09/03 04:22:30;;;;;;;10.98;6.75;;;;;;;16.58;67.01;100982.78;5002308;28;20014;-64
2021/09/03 04:24:55;;;;;;;14.32;6.72;;;;;;;16.61;67.06;100979.09;5015889;28;20044;-60
2021/09/03 04:27:20;;;;;;;10.48;7.28;;;;;;;16.66;66.75;100976.59;5015915;28;20022;-59
2021/09/03 04:29:46;;;;;;;13.40;6.80;;;;;;;16.70;66.37;100976.53;5010730;28;20057;-64
2021/09/03 04:32:11;;;;;;;11.32;7.50;;;;;;;16.71;66.23;100981.00;5015694;28;20417;-60
2021/09/03 04:34:36;;;;;;;8.73;6.80;;;;;;;16.71;66.04;100978.16;5015867;28;20402;-63
2021/09/03 04:37:02;;;;;;;10.10;7.38;;;;;;;16.69;66.65;100969.25;5003869;28;20438;-64
2021/09/03 04:39:27;;;;;;;8.82;6.55;;;;;;;16.67;66.69;100966.03;5015557;28;20030;-64
2021/09/03 04:41:53;;;;;;;7.57;6.28;;;;;;;16.67;66.81;100963.19;5015837;28;20073;-64
2021/09/03 04:44:18;;;;;;;10.38;7.25;;;;;;;16.68;66.96;100976.16;5010982;28;20049;-64
2021/09/03 04:46:44;;;;;;;11.57;7.28;;;;;;;16.69;66.78;100974.94;5009223;28;20049;-64
2021/09/03 04:49:09;;;;;;;10.07;6.90;;;;;;;16.68;66.87;100976.97;5015290;28;20431;-64
2021/09/03 04:51:34;;;;;;;11.27;7.32;;;;;;;16.69;66.84;100975.72;5005723;28;20034;-64
2021/09/03 04:54:00;;;;;;;9.55;6.28;;;;;;;16.69;67.03;100980.59;5006330;28;20042;-66
2021/09/03 04:56:25;;;;;;;9.80;6.35;;;;;;;16.71;67.54;100983.00;5006543;28;20033;-64
2021/09/03 04:58:50;;;;;;;9.50;6.50;;;;;;;16.72;67.32;100985.44;5007740;28;20322;-58
2021/09/03 05:01:16;;;;;;;12.85;6.72;;;;;;;16.74;67.67;100985.81;5002246;28;20065;-64
2021/09/03 05:03:41;;;;;;;10.40;7.15;;;;;;;16.77;67.58;100975.63;5005722;28;20108;-60
2021/09/03 05:06:08;;;;;;;8.77;6.38;;;;;;;16.77;67.61;100979.28;5024580;28;20310;-60
2021/09/03 05:08:34;;;;;;;8.38;6.90;;;;;;;16.78;68.12;100978.03;5028050;28;20466;-60
2021/09/03 05:10:59;;;;;;;10.43;6.38;;;;;;;16.82;67.71;100977.97;5034127;28;20025;-66
2021/09/03 05:13:24;;;;;;;10.50;6.15;;;;;;;16.83;67.89;100977.53;5034104;28;20018;-64
2021/09/03 05:15:51;;;;;;;12.90;6.55;;;;;;;16.85;67.98;100977.09;5034219;28;20048;-64
2021/09/03 05:18:17;;;;;;;9.35;6.63;;;;;;;16.87;67.76;100983.16;5033962;28;20333;-60
2021/09/03 05:20:42;;;;;;;9.48;6.18;;;;;;;16.89;67.38;100981.50;5034983;28;20101;-60
2021/09/03 05:23:07;;;;;;;8.85;6.85;;;;;;;16.94;67.29;100983.03;5034369;28;20052;-64
2021/09/03 05:25:33;;;;;;;8.00;6.10;;;;;;;16.96;67.05;100972.84;5034277;28;20065;-60
2021/09/03 05:27:58;;;;;;;9.23;6.22;;;;;;;17.00;67.01;100978.47;5032190;28;20025;-64
2021/09/03 05:30:23;;;;;;;8.40;6.47;;;;;;;17.03;67.27;100982.50;5033582;28;20133;-64
2021/09/03 05:32:49;;;;;;;10.80;7.00;;;;;;;17.05;66.88;100992.19;5033213;28;20060;-61
2021/09/03 05:35:15;;;;;;;8.77;6.30;;;;;;;17.10;66.43;100985.19;5034175;28;20087;-64
2021/09/03 05:37:41;;;;;;;7.75;6.32;;;;;;;17.14;66.30;100972.53;5034233;28;20026;-64
2021/09/03 05:40:07;;;;;;;11.20;6.20;;;;;;;17.18;66.29;100984.63;5034628;28;20025;-60
2021/09/03 05:42:33;;;;;;;10.80;6.50;;;;;;;17.24;65.98;100987.75;5035082;28;20112;-65
2021/09/03 05:44:58;;;;;;;8.27;6.25;;;;;;;17.26;65.80;100982.47;5034923;28;20100;-66
2021/09/03 05:47:23;;;;;;;11.60;6.18;;;;;;;17.31;65.32;100981.97;5033646;28;20030;-60
2021/09/03 05:49:49;;;;;;;10.80;6.45;;;;;;;17.35;64.87;100988.38;5035093;28;20057;-64
2021/09/03 05:52:14;;;;;;;9.82;6.95;;;;;;;17.39;64.76;100976.94;5034787;28;20041;-65
2021/09/03 05:54:40;;;;;;;9.48;6.57;;;;;;;17.44;64.11;100977.22;5034961;28;20018;-64
2021/09/03 05:57:06;;;;;;;7.75;6.28;;;;;;;17.46;64.39;100977.59;5038163;28;20037;-65
2021/09/03 05:59:32;;;;;;;9.30;5.40;;;;;;;17.50;65.02;100984.00;5038339;28;20048;-64
2021/09/03 06:01:57;;;;;;;10.00;5.80;;;;;;;17.52;64.53;100986.41;5038485;28;20371;-64
2021/09/03 06:04:22;;;;;;;8.10;5.80;;;;;;;17.55;64.25;100980.69;5038468;28;20029;-64
2021/09/03 06:06:48;;;;;;;8.00;5.35;;;;;;;17.60;64.06;100976.53;5038510;28;20063;-64
2021/09/03 06:09:13;;;;;;;8.77;5.40;;;;;;;17.61;64.02;100976.09;5038447;28;20112;-66
2021/09/03 06:11:39;;;;;;;7.47;5.53;;;;;;;17.67;63.01;100984.09;5038393;28;20026;-59
2021/09/03 06:14:04;;;;;;;8.70;5.40;;;;;;;17.69;63.04;100978.81;5038381;28;20033;-65
2021/09/03 06:16:30;;;;;;;6.78;5.20;;;;;;;17.73;62.88;100979.53;5037856;28;20034;-64
2021/09/03 06:18:55;;;;;;;9.55;5.40;;;;;;;17.77;62.58;100981.03;5038149;28;20100;-64
2021/09/03 06:21:21;;;;;;;6.28;5.13;;;;;;;17.81;62.56;100981.00;5038408;28;20032;-60
2021/09/03 06:23:46;;;;;;;8.55;5.93;;;;;;;17.86;61.02;100977.63;5037822;28;20022;-61
2021/09/03 06:26:12;;;;;;;10.45;4.80;;;;;;;17.89;61.26;100983.25;5038252;28;20028;-65
2021/09/03 06:28:37;;;;;;;10.32;5.38;;;;;;;17.91;60.93;100980.75;5038104;28;20022;-64
2021/09/03 06:31:02;;;;;;;10.15;5.18;;;;;;;17.96;61.13;100976.59;5037535;28;20046;-64
2021/09/03 06:33:28;;;;;;;6.70;4.97;;;;;;;18.00;60.32;100971.63;5038075;28;20386;-61
2021/09/03 06:35:53;;;;;;;11.82;5.97;;;;;;;18.06;60.36;100972.69;5037766;28;20025;-64
2021/09/03 06:38:19;;;;;;;6.90;4.60;;;;;;;18.13;58.60;100977.44;5037851;28;20075;-64
2021/09/03 06:40:44;;;;;;;7.30;4.93;;;;;;;18.16;58.56;100980.22;5037513;28;20029;-65
2021/09/03 06:43:09;;;;;;;10.98;4.45;;;;;;;18.23;57.51;100974.34;5037944;28;20017;-64
2021/09/03 06:45:35;;;;;;;8.40;4.80;;;;;;;18.25;57.25;100981.66;5037757;28;20057;-61
2021/09/03 06:48:00;;;;;;;5.60;4.40;;;;;;;18.28;57.74;100980.75;5037412;28;20051;-64
2021/09/03 06:50:25;;;;;;;6.85;4.55;;;;;;;18.31;57.43;100985.56;5038031;28;20072;-61
2021/09/03 06:52:51;;;;;;;9.90;4.88;;;;;;;18.36;57.37;100982.22;5037308;28;20405;-61
2021/09/03 06:55:16;;;;;;;6.45;4.13;;;;;;;18.38;57.64;100986.22;5037602;28;20025;-64
2021/09/03 06:57:42;;;;;;;9.45;4.25;;;;;;;18.42;56.55;100988.97;5037796;28;20026;-64
2021/09/03 07:00:09;;;;;;;9.20;4.00;;;;;;;18.46;56.51;100993.34;5037292;28;20017;-65
2021/09/03 07:02:34;;;;;;;7.35;3.72;;;;;;;18.50;55.43;100990.41;5036643;28;20324;-64
2021/09/03 07:05:00;;;;;;;6.93;3.40;;;;;;;18.53;56.22;100996.00;5037135;28;20028;-64
2021/09/03 07:07:25;;;;;;;13.07;3.92;;;;;;;18.58;56.15;100988.97;5037297;28;20365;-66
2021/09/03 07:09:51;;;;;;;10.75;4.00;;;;;;;18.61;55.13;101001.53;5036202;28;20112;-65
2021/09/03 07:12:17;;;;;;;6.75;3.90;;;;;;;18.63;54.84;100993.41;5037167;28;20041;-64
2021/09/03 07:14:44;;;;;;;6.80;3.40;;;;;;;18.67;54.51;101000.59;5037041;28;20114;-60
2021/09/03 07:17:09;;;;;;;4.78;3.42;;;;;;;18.72;54.21;101005.75;5037173;28;20435;-64
2021/09/03 07:19:35;;;;;;;8.48;3.25;;;;;;;18.76;54.43;100997.13;5036064;28;20021;-61
2021/09/03 07:22:01;;;;;;;7.00;3.72;;;;;;;18.80;53.30;100995.00;5037009;28;20027;-61
2021/09/03 07:24:27;;;;;;;4.90;3.65;;;;;;;18.84;53.31;101002.19;5037191;28;20018;-61
2021/09/03 07:26:52;;;;;;;10.13;5.85;;;;;;;18.90;54.25;100993.09;5036944;28;20315;-60
2021/09/03 07:29:18;;;;;;;18.73;8.85;;;;;;;18.95;54.14;100995.44;5036499;28;20388;-58
2021/09/03 07:31:43;;;;;;;10.85;5.63;;;;;;;18.99;53.77;100999.78;5036870;28;20436;-64
2021/09/03 07:34:08;;;;;;;7.95;4.65;;;;;;;19.05;53.16;101000.06;5036665;28;20026;-64
2021/09/03 07:36:34;;;;;;;8.98;6.63;;;;;;;19.11;52.86;101001.91;5036769;28;20083;-64
2021/09/03 07:38:59;;;;;;;8.30;5.22;;;;;;;19.14;52.54;100997.38;5036620;28;20035;-64
2021/09/03 07:41:24;;;;;;;6.15;3.78;;;;;;;19.20;52.07;101001.28;5035708;28;20028;-64
2021/09/03 07:43:50;;;;;;;5.90;3.88;;;;;;;19.25;51.45;101003.59;5036546;28;20028;-61
2021/09/03 07:46:15;;;;;;;5.88;2.95;;;;;;;19.31;51.29;101001.78;5036596;28;20028;-60
2021/09/03 07:48:41;;;;;;;4.97;3.28;;;;;;;19.36;51.47;100998.41;5036567;28;20032;-61
2021/09/03 07:51:06;;;;;;;6.47;3.00;;;;;;;19.40;51.36;101004.78;5036144;28;20078;-65
2021/09/03 07:53:31;;;;;;;6.10;3.17;;;;;;;19.44;51.83;100999.00;5036580;28;20063;-64
2021/09/03 07:55:57;;;;;;;7.38;3.63;;;;;;;19.48;52.19;101001.78;5036247;28;20029;-58
2021/09/03 07:58:23;;;;;;;5.43;3.60;;;;;;;19.47;51.40;100995.28;5036336;28;20025;-61
2021/09/03 08:00:48;;;;;;;7.20;3.38;;;;;;;19.48;52.47;100999.72;5036533;28;20100;-64
2021/09/03 08:03:14;;;;;;;6.97;3.60;;;;;;;19.50;51.64;100991.50;5036184;28;20156;-63
2021/09/03 08:05:39;;;;;;;7.68;3.80;;;;;;;19.56;51.29;100998.28;5036454;28;20036;-64
2021/09/03 08:08:06;;;;;;;5.30;3.58;;;;;;;19.56;51.56;100994.63;5036073;28;20041;-61
2021/09/03 08:10:32;;;;;;;4.88;3.45;;;;;;;19.57;52.44;100991.34;5035155;28;20025;-65
2021/09/03 08:13:03;;;;;;;7.25;3.20;;;;;;;19.62;51.77;100989.97;5034822;28;20108;-64
2021/09/03 08:15:29;;;;;;;5.25;3.22;;;;;;;19.69;51.96;100996.28;5036019;28;20097;-64
2021/09/03 08:17:55;;;;;;;4.70;2.90;;;;;;;19.84;52.04;100982.41;5034540;28;20036;-65
2021/09/03 08:20:21;;;;;;;10.35;3.38;;;;;;;19.94;52.00;100989.03;5036161;28;20317;-64
2021/09/03 08:22:48;;;;;;;5.18;3.38;;;;;;;20.05;50.83;100992.38;5035855;28;20025;-64
2021/09/03 08:25:15;;;;;;;4.72;2.97;;;;;;;20.12;50.00;100985.66;5036201;28;20029;-60
2021/09/03 08:27:40;;;;;;;5.05;2.88;;;;;;;20.14;49.03;100988.84;5035853;28;20032;-64
2021/09/03 08:30:07;;;;;;;5.70;2.72;;;;;;;20.21;49.51;100994.34;5035465;28;20337;-61
2021/09/03 08:32:33;;;;;;;6.32;3.20;;;;;;;20.28;49.31;100986.38;5035759;28;20142;-61
2021/09/03 08:34:58;;;;;;;4.03;2.88;;;;;;;20.34;49.57;100983.75;5035825;28;20026;-61
2021/09/03 08:37:24;;;;;;;7.20;3.63;;;;;;;20.37;49.80;100985.69;5036011;28;20427;-61
2021/09/03 08:39:50;;;;;;;6.70;2.88;;;;;;;20.40;49.34;100979.09;5034871;28;20079;-61
2021/09/03 08:42:15;;;;;;;5.15;3.03;;;;;;;20.50;48.82;100982.84;5035673;28;20021;-64
2021/09/03 08:44:41;;;;;;;6.80;2.90;;;;;;;20.55;48.69;100973.72;5035796;28;20436;-64
2021/09/03 08:47:09;;;;;;;4.47;3.05;;;;;;;20.58;48.33;100975.66;5034418;28;20120;-61
2021/09/03 08:49:35;;;;;;;4.38;3.15;;;;;;;20.59;48.12;100975.22;5035643;28;20025;-61
2021/09/03 08:52:00;;;;;;;7.03;3.10;;;;;;;20.73;48.59;100978.84;5035552;28;20025;-61
2021/09/03 08:54:26;;;;;;;6.28;3.03;;;;;;;20.85;47.38;100972.31;5034199;28;20120;-61
2021/09/03 08:56:52;;;;;;;7.80;3.33;;;;;;;20.91;47.67;100979.06;5035474;28;20052;-61
2021/09/03 08:59:17;;;;;;;7.82;2.80;;;;;;;20.98;45.80;100973.09;5035311;28;20100;-61
2021/09/03 09:01:42;;;;;;;4.38;2.78;;;;;;;21.04;47.22;100976.94;5035479;28;20417;-64
2021/09/03 09:04:14;;;;;;;4.78;2.75;;;;;;;21.09;46.12;100969.84;5035466;28;20033;-64
2021/09/03 09:06:41;;;;;;;2.83;2.35;;;;;;;21.18;46.58;100972.81;5035457;28;20033;-64
2021/09/03 09:09:07;;;;;;;4.38;2.80;;;;;;;21.26;46.86;100965.59;5035279;28;20112;-64
2021/09/03 09:11:35;;;;;;;5.05;3.30;;;;;;;21.39;46.32;100974.16;5035156;28;20104;-61
2021/09/03 09:14:03;;;;;;;2.85;2.55;;;;;;;21.46;45.04;100968.97;5035306;28;20025;-64
2021/09/03 09:16:32;;;;;;;4.93;2.60;;;;;;;21.46;45.26;100963.25;5035138;28;20036;-61
2021/09/03 09:19:03;;;;;;;3.67;2.42;;;;;;;21.46;45.08;100963.25;5035165;28;20021;-61
2021/09/03 09:21:31;;;;;;;6.50;2.90;;;;;;;21.49;44.70;100956.59;5035457;28;20075;-61
2021/09/03 09:24:06;;;;;;;4.50;2.70;;;;;;;21.52;46.83;100960.56;5033897;28;20334;-64
2021/09/03 09:26:50;;;;;;;7.75;2.60;;;;;;;21.55;45.13;100953.91;5035147;28;20423;-64
2021/09/03 09:29:18;;;;;;;3.67;2.67;;;;;;;21.60;45.14;100956.19;5035390;28;20049;-62
2021/09/03 09:31:46;;;;;;;9.63;3.00;;;;;;;21.63;44.36;100949.53;5039310;28;20029;-61
2021/09/03 09:34:28;;;;;;;2.90;2.47;;;;;;;21.69;43.85;100949.75;5038938;28;20028;-60
2021/09/03 09:36:55;;;;;;;5.15;2.60;;;;;;;21.76;44.45;100949.47;5039033;28;20033;-61
2021/09/03 09:39:23;;;;;;;5.57;2.58;;;;;;;21.84;44.05;100951.56;5038870;28;20017;-61
2021/09/03 09:42:00;;;;;;;3.00;2.42;;;;;;;21.98;43.66;100946.59;5038901;28;20049;-61
2021/09/03 09:44:34;;;;;;;4.30;2.40;;;;;;;22.11;43.89;100938.72;5038899;28;20097;-61
2021/09/03 09:47:04;;;;;;;7.57;2.63;;;;;;;22.16;43.46;100933.19;5038757;28;20021;-64
2021/09/03 09:49:29;;;;;;;4.45;2.17;;;;;;;22.28;43.88;100931.50;5038860;28;20308;-61
2021/09/03 09:51:54;;;;;;;2.53;2.30;;;;;;;22.35;42.36;100931.19;5038669;28;20021;-64
2021/09/03 09:54:25;;;;;;;7.90;2.60;;;;;;;22.45;42.87;100938.53;5038565;28;20021;-61
2021/09/03 09:56:53;;;;;;;3.50;2.40;;;;;;;22.47;42.45;100930.31;5038760;28;20021;-64
2021/09/03 09:59:20;;;;;;;3.63;2.40;;;;;;;22.49;41.37;100930.63;5038808;28;20036;-64
2021/09/03 10:01:49;;;;;;;3.50;2.58;;;;;;;22.48;40.94;100925.38;5038641;28;20025;-61
2021/09/03 10:04:17;;;;;;;3.13;2.38;;;;;;;22.48;41.82;100923.31;5038580;28;20033;-66
2021/09/03 10:06:45;;;;;;;3.13;2.00;;;;;;;22.52;41.34;100912.47;5038679;28;20030;-65
2021/09/03 10:09:14;;;;;;;5.15;2.53;;;;;;;22.58;41.14;100915.53;5038481;28;20100;-64
2021/09/03 10:11:42;;;;;;;15.23;2.45;;;;;;;22.64;37.81;100918.56;5037697;28;20048;-64
2021/09/03 10:14:09;;;;;;;3.85;1.60;;;;;;;22.66;38.38;100910.28;5038365;28;20079;-64
2021/09/03 10:16:35;;;;;;;2.67;2.17;;;;;;;22.71;39.59;100901.84;5038144;28;20323;-64
2021/09/03 10:19:03;;;;;;;2.42;1.65;;;;;;;22.79;38.82;100911.75;5038193;28;20025;-64
2021/09/03 10:21:30;;;;;;;3.72;2.17;;;;;;;22.79;39.96;100905.22;5038499;28;20308;-61
2021/09/03 10:24:06;;;;;;;2.72;2.30;;;;;;;22.76;39.49;100903.31;5037638;28;20412;-61
2021/09/03 10:26:37;;;;;;;5.55;2.15;;;;;;;22.75;40.34;100898.84;5038338;28;20359;-61
2021/09/03 10:29:22;;;;;;;3.15;2.10;;;;;;;22.75;39.76;100885.31;5037869;28;20292;-61
2021/09/03 10:32:08;;;;;;;3.42;2.08;;;;;;;22.77;38.97;100893.44;5038470;28;20046;-64
2021/09/03 10:37:20;;;;;;;5.90;2.28;;;;;;;22.83;40.16;100890.75;5038090;28;20156;-58
2021/09/03 10:39:52;;;;;;;3.93;2.40;;;;;;;22.85;39.56;100893.94;5038034;28;20030;-64
2021/09/03 10:45:04;;;;;;;3.63;2.47;;;;;;;22.88;40.79;100881.53;5038179;28;20060;-64
2021/09/03 10:47:34;;;;;;;3.60;2.22;;;;;;;22.94;40.13;100880.41;5037755;28;20049;-64
2021/09/03 10:50:24;;;;;;;3.58;2.40;;;;;;;22.98;39.86;100881.03;5037746;28;20033;-64
2021/09/03 10:53:12;;;;;;;3.42;2.35;;;;;;;22.94;39.26;100874.69;5013158;28;20113;-64
2021/09/03 10:55:59;;;;;;;4.25;2.63;;;;;;;22.96;39.91;100871.34;5028311;28;20037;-64
2021/09/03 10:58:36;;;;;;;3.38;2.45;;;;;;;23.00;40.50;100872.75;5037146;28;20428;-64
2021/09/03 11:03:47;;;;;;;4.90;2.20;;;;;;;23.08;39.56;100871.19;5037586;28;20045;-61
2021/09/03 11:06:13;;;;;;;3.25;2.13;;;;;;;23.13;40.17;100870.56;5037242;28;20021;-61
2021/09/03 11:08:40;;;;;;;4.20;2.75;;;;;;;23.18;39.29;100871.19;5037618;28;20443;-64
2021/09/03 11:11:25;;;;;;;5.13;2.38;;;;;;;23.26;39.86;100858.91;5037208;28;20032;-64
2021/09/03 11:13:57;;;;;;;4.60;2.47;;;;;;;23.36;39.39;100859.69;5025688;28;20052;-64
2021/09/03 11:16:39;;;;;;;3.80;2.35;;;;;;;23.49;40.01;100856.63;5037097;28;20037;-64
2021/09/03 11:19:13;;;;;;;6.70;2.88;;;;;;;23.65;39.61;100844.84;5037019;28;20104;-64
2021/09/03 11:21:43;;;;;;;3.63;2.30;;;;;;;23.80;39.80;100848.59;5036990;28;20048;-64
2021/09/03 11:24:10;;;;;;;4.35;2.22;;;;;;;23.82;37.79;100845.25;5036963;28;20191;-64
2021/09/03 11:26:38;;;;;;;3.40;2.40;;;;;;;23.82;38.27;100845.25;5036083;28;20025;-64
2021/09/03 11:29:21;;;;;;;4.80;2.70;;;;;;;23.80;39.19;100837.13;5036700;28;20025;-64